EST,Max TemperatureF,Mean TemperatureF,Min TemperatureF,Max Dew PointF,MeanDew PointF,Min DewpointF,Max Humidity, Mean Humidity, Min Humidity, Max Sea Level PressureIn, Mean Sea Level PressureIn, Min Sea Level PressureIn, Max VisibilityMiles, Mean VisibilityMiles, Min VisibilityMiles, Max Wind SpeedMPH, Mean Wind SpeedMPH, Max Gust SpeedMPH,PrecipitationIn, CloudCover, Events, WindDirDegrees
2012-12-1,23,11,-1,9,3,-6,87,66,45,30.72,30.65,30.57,10,10,10,7,1,10,T,3,,160
2012-12-2,49,36,22,45,35,9,93,73,52,30.54,30.20,29.84,10,5,2,18,8,25,0.35,8,Rain-Snow,182
2012-12-3,47,35,23,43,34,20,93,83,73,30.27,30.06,29.84,10,8,1,18,6,25,0.06,5,Rain,264
2012-12-4,45,33,20,43,32,18,96,89,82,30.30,30.13,29.91,10,6,2,13,5,21,0.00,6,,180
2012-12-5,50,40,29,48,36,17,93,76,58,29.94,29.80,29.70,10,7,2,18,9,30,0.53,7,Rain-Snow,271
2012-12-6,29,21,13,17,12,10,80,63,46,30.29,30.17,29.95,10,10,10,22,9,35,0.00,4,,329
2012-12-7,36,25,13,29,20,11,88,71,54,30.27,30.13,30.02,10,10,10,14,4,21,0.00,3,,186
2012-12-8,39,29,19,34,28,18,92,78,64,30.05,29.93,29.78,10,8,2,15,1,21,0.01,6,Snow,121
2012-12-9,40,31,22,34,27,10,96,74,52,30.33,30.05,29.79,10,8,1,17,6,23,0.00,5,,277
2012-12-10,32,26,19,30,20,8,92,75,57,30.29,29.80,29.45,10,4,0,16,5,24,0.60,8,Fog-Rain-Snow,49
2012-12-11,34,21,7,31,22,6,92,82,72,30.09,29.76,29.46,10,10,7,17,6,23,0.01,6,Rain-Snow,282
2012-12-12,26,13,0,19,9,-4,88,81,73,30.35,30.27,30.12,10,10,9,6,1,10,0.00,2,,223
2012-12-13,30,18,6,21,14,3,92,81,69,30.42,30.34,30.20,10,10,8,7,1,10,0.00,4,,213
2012-12-14,35,25,15,28,23,13,92,80,68,30.17,30.01,29.91,10,10,10,18,7,25,T,7,,235
2012-12-15,23,12,1,12,3,-3,87,70,53,30.38,30.29,30.07,10,10,2,18,9,24,T,3,Snow,334
2012-12-16,18,6,-7,5,-1,-11,87,71,54,30.39,30.33,30.27,10,10,10,13,3,16,0.00,0,,5
2012-12-17,32,19,6,28,16,2,85,79,73,30.30,30.19,30.09,10,8,2,13,4,20,T,8,Snow,84
2012-12-18,35,34,32,31,30,28,89,82,75,30.08,29.79,29.59,10,4,0,20,11,28,0.61,8,Fog-Snow,74
2012-12-19,34,32,29,31,30,23,92,85,78,30.02,29.71,29.57,10,2,0,20,11,28,0.60,8,Fog-Snow,41
2012-12-20,31,26,21,25,23,19,92,85,78,30.18,30.14,30.04,10,8,1,10,3,14,0.00,5,,1
2012-12-21,38,33,27,35,27,23,92,85,78,30.11,29.78,29.16,10,8,2,25,10,40,0.34,8,Rain-Snow,106
2012-12-22,41,34,26,38,32,17,96,83,70,29.36,29.23,29.13,10,9,2,21,7,31,0.10,8,Rain-Snow,175
2012-12-23,26,19,12,19,10,4,81,69,56,29.72,29.52,29.35,10,7,1,20,11,28,T,6,Snow,278
2012-12-24,17,14,10,4,2,0,73,61,49,30.00,29.89,29.73,10,10,10,22,11,31,0.00,1,,273
2012-12-25,20,10,0,8,4,-2,87,69,51,30.19,30.07,30.00,10,10,6,15,6,23,0.00,2,,345
2012-12-26,20,12,4,9,7,1,88,75,62,30.34,30.27,30.17,10,8,5,16,7,23,0.00,3,,347
2012-12-27,25,17,8,22,16,6,88,80,71,30.26,29.93,29.56,10,4,0,23,11,28,0.25,7,Fog-Snow,33
2012-12-28,26,21,15,21,17,10,88,78,68,29.86,29.67,29.54,10,6,0,21,12,31,0.07,7,Fog-Snow,339
2012-12-29,22,11,0,13,10,-1,92,77,62,29.96,29.85,29.58,10,10,10,12,4,17,0.00,3,,9
2012-12-30,24,18,11,18,14,1,84,76,67,29.56,29.40,29.30,10,3,0,24,14,32,0.09,8,Fog-Snow,340
2012-12-31,21,13,5,16,5,-4,76,64,51,29.72,29.65,29.55,10,9,2,22,10,31,T,3,Snow,264